This is the latest recevied weather packets stored in our database for station/object OH2NJR. If no packets are shown the sender has not sent any weather packets the latest 10 day(s).
| Time | Temp. | Humidity | Pressure | Rain* | Wind** | Luminosity | Snow |
|---|---|---|---|---|---|---|---|
| 1777804513 | 12.22° C | 66% | 1007.8 hPa | 0 mm | - | - | - |
| 1777803338 | 12.22° C | 65% | 1007.7 hPa | 0 mm | - | - | - |
| 1777802359 | 11.67° C | 67% | - | 0 mm | - | - | - |
| 1777802353 | 11.67° C | 67% | 1007.8 hPa | 0 mm | - | - | - |
| 1777801368 | 11.67° C | 68% | 1007.9 hPa | 0 mm | - | - | - |
| 1777800293 | 10.56° C | 69% | 1008.1 hPa | 0 mm | - | - | - |
| 1777799268 | 11.11° C | 69% | 1007.9 hPa | 0 mm | - | - | - |
| 1777798268 | 12.78° C | 60% | 1007.3 hPa | 0 mm | - | - | - |
| 1777797153 | 11.11° C | - | - | 0 mm | - | - | - |
| 1777797148 | 11.11° C | 66% | 1007.2 hPa | 0 mm | - | - | - |
| 1777796080 | 11.11° C | 68% | 1007.2 hPa | 0 mm | - | - | - |
| 1777794938 | 10.56° C | 74% | 1007.3 hPa | 0 mm | - | - | - |
| 1777793898 | 10° C | 71% | 1007.1 hPa | 0 mm | - | - | - |
| 1777792903 | 10° C | 69% | 1007.2 hPa | 0 mm | - | - | - |
| 1777791838 | 10° C | 70% | 1006.8 hPa | 0 mm | - | - | - |
| 1777790800 | 10.56° C | 69% | 1006.6 hPa | 0 mm | - | - | - |
| 1777789651 | 10° C | 68% | 1006.3 hPa | 0 mm | - | - | - |
| 1777788529 | 10° C | 70% | 1006.4 hPa | 0 mm | - | - | - |
| 1777788523 | 10° C | 70% | 1006.4 hPa | 0 mm | - | - | - |
| 1777787473 | 8.89° C | 74% | 1006.2 hPa | 0 mm | - | - | - |
| 1777786443 | 8.89° C | 75% | 1006.1 hPa | 0 mm | - | - | - |
| 1777785428 | 8.33° C | 77% | 1006.1 hPa | 0 mm | - | - | - |
| 1777784288 | 6.67° C | 87% | 1005.7 hPa | 0 mm | - | - | - |
| 1777783308 | 6.11° C | 87% | 1005.7 hPa | 0 mm | - | - | - |
| 1777782193 | 6.11° C | 88% | 1005.3 hPa | 0 mm | - | - | - |
* Rain latest hour (hover to see other rain measurements)
** Current wind speed in m/s (hover to see current wind gust speed)